s-Heerenberg, Netherlands
Current Conditions -  °F | °C
As of 4:50 PM on Sunday 21 Dec 2014 (Local Time) from EDLV Reporting Station
Light Rain Light Rain  
Wind Chill: 39°   Ceiling: 1000
Heat Index: 46°   Visibility: 6mi
Dew Point: 46°   Wind: 17mph
Humidity: 100%   Direction: 240°WSW
Pressure: 30.24"   Gusts: NA
Location:  51.88°N, 6.26°E
Report Text: EDLV 211550Z 24015KT 9000 -RA BKN010 08/08 Q1024
Loading
Personal Weather Stations






























Interactive Weather Map New forecast layout! Learn more

10-Day Weather Forecast

Advertisements
Track Severe Weather on mobile